Time;durP1;ratioP1;P1;durP2;ratioP2;P2;SDS_P1;SDS_P2;PMS_P1;PMS_P2;Temp;Humidity;BMP_temperature;BMP_pressure;BME280_temperature;BME280_humidity;BME280_pressure;Samples;Min_cycle;Max_cycle;Signal;HPM_P1;HPM_P2
2022/01/05 00:01:54;;;;;;;6.50;1.50;;;1.50;99.90;;;;;;2160071;66;20318;-78
2022/01/05 00:04:36;;;;;;;3.47;1.73;;;1.50;99.90;;;;;;2159792;66;20209;-76
2022/01/05 00:07:19;;;;;;;6.60;1.55;;;1.50;99.90;;;;;;2149666;66;20353;-78
2022/01/05 00:10:01;;;;;;;4.45;1.35;;;1.60;99.90;;;;;;2141565;66;20170;-77
2022/01/05 00:12:41;;;;;;;4.07;1.35;;;2.00;99.90;;;;;;2146151;66;20208;-78
2022/01/05 00:15:29;;;;;;;4.93;1.27;;;1.40;99.90;;;;;;2131394;67;20313;-78
2022/01/05 00:18:03;;;;;;;10.38;1.42;;;1.50;99.90;;;;;;2135734;67;20209;-78
2022/01/05 00:20:34;;;;;;;6.47;1.45;;;1.40;99.90;;;;;;2126714;66;20188;-77
2022/01/05 00:23:10;;;;;;;4.45;1.60;;;1.50;99.90;;;;;;2156002;66;20358;-78
2022/01/05 00:25:41;;;;;;;12.15;2.80;;;1.50;99.90;;;;;;2161352;66;20188;-78
2022/01/05 00:28:32;;;;;;;3.90;1.83;;;1.20;99.90;;;;;;2146964;66;20332;-78
2022/01/05 00:31:11;;;;;;;9.27;2.30;;;1.50;99.90;;;;;;2158288;66;20164;-78
2022/01/05 00:33:50;;;;;;;7.85;1.42;;;1.40;99.90;;;;;;2161214;66;20693;-77
2022/01/05 00:36:30;;;;;;;4.75;1.45;;;1.40;99.90;;;;;;2164051;65;20196;-78
2022/01/05 00:39:18;;;;;;;12.73;2.75;;;1.50;99.90;;;;;;2173707;65;20238;-78
2022/01/05 00:41:59;;;;;;;19.30;2.83;;;1.50;99.90;;;;;;2184503;65;20263;-79
2022/01/05 00:44:39;;;;;;;6.70;1.52;;;1.50;99.90;;;;;;2183284;65;20406;-81
2022/01/05 00:47:20;;;;;;;12.10;2.95;;;1.50;99.90;;;;;;2202983;64;20587;-79
2022/01/05 00:49:56;;;;;;;6.60;2.75;;;1.50;99.90;;;;;;2222362;64;20172;-78
2022/01/05 00:52:34;;;;;;;7.00;1.98;;;2.20;99.90;;;;;;2225328;64;20166;-79
2022/01/05 00:55:16;;;;;;;6.85;2.25;;;1.70;99.90;;;;;;2238716;63;20702;-78
2022/01/05 00:57:54;;;;;;;7.07;2.13;;;1.70;99.90;;;;;;2235595;63;20238;-79
2022/01/05 01:00:33;;;;;;;7.82;1.88;;;1.70;99.90;;;;;;2236166;63;20187;-77
2022/01/05 01:03:13;;;;;;;6.13;1.90;;;1.70;99.90;;;;;;2238312;63;20162;-79
2022/01/05 01:06:05;;;;;;;9.23;2.05;;;2.10;99.90;;;;;;2219015;64;20403;-77
2022/01/05 01:08:43;;;;;;;11.18;3.03;;;1.60;99.90;;;;;;2220489;64;20259;-77
2022/01/05 01:11:22;;;;;;;6.05;2.05;;;1.60;99.90;;;;;;2223468;64;20179;-78
2022/01/05 01:13:58;;;;;;;8.60;1.65;;;1.60;99.90;;;;;;2225575;64;20211;-78
2022/01/05 01:16:37;;;;;;;12.68;2.25;;;1.60;99.90;;;;;;2226802;64;20307;-77
2022/01/05 01:19:19;;;;;;;11.27;2.58;;;1.70;99.90;;;;;;2218906;64;20401;-77
2022/01/05 01:22:02;;;;;;;4.18;1.67;;;1.80;99.90;;;;;;2209165;64;20683;-78
2022/01/05 01:24:44;;;;;;;9.45;1.92;;;1.90;99.90;;;;;;2194555;65;20283;-78
2022/01/05 01:27:27;;;;;;;6.95;2.28;;;1.90;99.90;;;;;;2186680;65;20239;-77
2022/01/05 01:30:11;;;;;;;;;;;2.00;99.90;;;;;;2191011;65;20353;-78
2022/01/05 01:32:55;;;;;;;8.93;2.30;;;2.10;99.90;;;;;;2191942;65;20147;-76
2022/01/05 01:35:39;;;;;;;8.13;2.00;;;2.20;99.90;;;;;;2169403;66;20180;-77
2022/01/05 01:38:23;;;;;;;10.52;2.75;;;2.30;99.90;;;;;;2173080;66;20262;-79
2022/01/05 01:41:12;;;;;;;10.23;2.38;;;2.30;99.90;;;;;;2165939;66;20308;-76
2022/01/05 01:43:58;;;;;;;9.02;2.25;;;2.30;99.90;;;;;;2165666;66;20247;-79
2022/01/05 01:46:45;;;;;;;8.13;2.10;;;2.30;99.90;;;;;;2155422;66;20277;-77
2022/01/05 01:49:27;;;;;;;6.70;1.60;;;2.50;99.90;;;;;;2151461;66;20225;-76
2022/01/05 01:52:10;;;;;;;4.80;1.60;;;2.30;99.90;;;;;;2142305;66;20196;-75
2022/01/05 01:54:47;;;;;;;5.75;2.05;;;2.30;99.90;;;;;;2136138;67;20624;-77
2022/01/05 01:57:28;;;;;;;6.70;1.77;;;2.80;99.90;;;;;;2143550;66;20157;-78
2022/01/05 02:00:08;;;;;;;5.43;2.85;;;2.40;99.90;;;;;;2147750;66;20193;-78
2022/01/05 02:02:45;;;;;;;9.13;1.60;;;2.50;99.90;;;;;;2145580;66;20674;-77
2022/01/05 02:05:21;;;;;;;8.90;2.17;;;2.50;99.90;;;;;;2148353;66;20170;-79
2022/01/05 02:07:57;;;;;;;6.15;2.08;;;2.50;99.90;;;;;;2148787;66;20276;-78
2022/01/05 02:10:49;;;;;;;10.43;2.65;;;2.40;99.90;;;;;;2163136;65;20761;-78
2022/01/05 02:13:25;;;;;;;8.95;2.60;;;2.40;99.90;;;;;;2179258;65;20694;-77
2022/01/05 02:16:03;;;;;;;6.40;1.83;;;3.00;99.90;;;;;;2188418;65;20539;-78
2022/01/05 02:21:17;;;;;;;8.85;2.70;;;2.30;99.90;;;;;;2225123;64;20182;-80
2022/01/05 02:23:53;;;;;;;4.82;1.85;;;2.40;99.90;;;;;;2235859;63;20245;-78
2022/01/05 02:26:29;;;;;;;11.15;2.15;;;2.70;99.90;;;;;;2237360;63;20816;-78
2022/01/05 02:29:18;;;;;;;6.53;2.05;;;3.00;99.90;;;;;;2219272;64;20200;-77
2022/01/05 02:32:08;;;;;;;9.18;2.47;;;2.30;99.90;;;;;;2210257;64;20223;-77
2022/01/05 02:34:45;;;;;;;14.10;1.98;;;2.30;99.90;;;;;;2209670;64;20297;-75
2022/01/05 02:37:22;;;;;;;11.35;2.53;;;2.30;99.90;;;;;;2212610;64;20226;-77
2022/01/05 02:39:59;;;;;;;11.55;2.80;;;2.30;99.90;;;;;;2215020;64;20758;-77
2022/01/05 02:42:35;;;;;;;9.20;2.97;;;2.30;99.90;;;;;;2215077;64;20673;-76
2022/01/05 02:45:26;;;;;;;6.00;2.55;;;2.40;99.90;;;;;;2204294;64;20681;-76
2022/01/05 02:48:03;;;;;;;6.85;2.08;;;2.40;99.90;;;;;;2209668;64;20192;-76
2022/01/05 02:50:43;;;;;;;10.23;2.30;;;2.50;99.90;;;;;;2214056;64;20245;-77
2022/01/05 02:53:20;;;;;;;10.52;3.38;;;2.50;99.90;;;;;;2219074;64;20284;-77
2022/01/05 02:56:01;;;;;;;8.82;2.30;;;2.60;99.90;;;;;;2212057;64;20204;-75
2022/01/05 02:58:43;;;;;;;10.32;3.00;;;2.60;99.90;;;;;;2205754;64;20206;-78
2022/01/05 03:01:25;;;;;;;10.68;2.55;;;2.70;99.90;;;;;;2184977;65;20308;-76
2022/01/05 03:04:07;;;;;;;12.23;2.83;;;2.80;99.90;;;;;;2174861;65;20255;-77
2022/01/05 03:06:49;;;;;;;11.52;2.53;;;2.90;99.90;;;;;;2176013;65;20238;-75
2022/01/05 03:09:31;;;;;;;11.48;1.88;;;3.10;99.90;;;;;;2169555;65;20291;-77
2022/01/05 03:12:13;;;;;;;7.20;2.22;;;3.20;99.90;;;;;;2167023;65;20691;-74
2022/01/05 03:14:55;;;;;;;9.15;3.08;;;3.50;99.90;;;;;;2151262;66;20323;-76
2022/01/05 03:17:42;;;;;;;10.05;2.20;;;3.40;99.90;;;;;;2159895;66;20197;-75
2022/01/05 03:20:28;;;;;;;10.68;2.38;;;3.50;99.90;;;;;;2153108;66;20884;-76
2022/01/05 03:23:11;;;;;;;9.43;2.53;;;3.50;99.90;;;;;;2139204;66;20200;-76
2022/01/05 03:25:54;;;;;;;13.23;2.60;;;3.50;99.90;;;;;;2136328;67;20336;-76
2022/01/05 03:28:36;;;;;;;7.22;2.55;;;3.50;99.90;;;;;;2116422;67;20274;-75
2022/01/05 03:31:20;;;;;;;10.95;2.42;;;3.50;99.90;;;;;;2139853;66;20806;-76
2022/01/05 03:34:04;;;;;;;11.63;2.35;;;3.50;99.90;;;;;;2152980;66;20223;-76
2022/01/05 03:36:47;;;;;;;7.20;2.28;;;3.50;99.90;;;;;;2158787;66;20198;-75
2022/01/05 03:39:32;;;;;;;7.97;2.05;;;3.50;99.90;;;;;;2151840;66;20506;-76
2022/01/05 03:42:13;;;;;;;13.82;1.92;;;4.30;99.90;;;;;;2150261;66;20273;-76
2022/01/05 03:44:56;;;;;;;9.27;2.45;;;3.50;99.90;;;;;;2138927;67;20346;-77
2022/01/05 03:47:38;;;;;;;7.60;2.10;;;3.50;99.90;;;;;;2132056;66;20247;-76
2022/01/05 03:50:20;;;;;;;8.18;2.08;;;3.60;99.90;;;;;;2145920;66;20162;-77
2022/01/05 03:53:03;;;;;;;10.55;2.00;;;3.30;99.90;;;;;;2146726;66;20191;-78
2022/01/05 03:55:46;;;;;;;12.82;2.63;;;3.30;99.90;;;;;;2146935;66;20170;-78
2022/01/05 03:58:30;;;;;;;8.05;1.98;;;3.30;99.90;;;;;;2153164;66;20344;-75
2022/01/05 04:01:15;;;;;;;9.38;2.35;;;3.20;99.90;;;;;;2146267;66;20201;-77
2022/01/05 04:03:57;;;;;;;8.88;1.90;;;3.40;99.90;;;;;;2136521;66;20307;-77
2022/01/05 04:06:39;;;;;;;11.20;1.98;;;3.30;99.90;;;;;;2124757;67;20213;-77
2022/01/05 04:09:21;;;;;;;8.95;2.13;;;3.20;99.90;;;;;;2131475;67;20215;-76
2022/01/05 04:12:04;;;;;;;8.30;1.85;;;3.30;99.90;;;;;;2132926;67;20184;-77
2022/01/05 04:14:47;;;;;;;5.90;1.42;;;3.50;99.90;;;;;;2132572;67;20197;-75
2022/01/05 04:17:31;;;;;;;9.52;2.40;;;3.60;99.90;;;;;;2139185;66;20246;-73
2022/01/05 04:20:15;;;;;;;3.70;1.00;;;3.50;99.90;;;;;;2146029;66;20228;-74
2022/01/05 04:23:00;;;;;;;4.85;1.80;;;3.40;99.90;;;;;;2140239;66;20269;-75
2022/01/05 04:25:42;;;;;;;6.00;1.60;;;3.90;99.90;;;;;;2140278;66;20254;-73
2022/01/05 04:28:24;;;;;;;2.05;1.23;;;3.10;99.90;;;;;;2139231;66;20669;-76
2022/01/05 04:31:06;;;;;;;7.40;1.80;;;3.10;99.90;;;;;;2124100;67;20379;-75
2022/01/05 04:33:49;;;;;;;6.75;1.55;;;3.00;99.90;;;;;;2140078;67;20204;-75
2022/01/05 04:36:31;;;;;;;11.55;2.25;;;2.90;99.90;;;;;;2139385;66;20312;-78
2022/01/05 04:39:14;;;;;;;7.10;1.55;;;2.90;99.90;;;;;;2140549;66;21158;-76
2022/01/05 04:41:57;;;;;;;4.22;1.75;;;2.90;99.90;;;;;;2132969;67;20245;-76
2022/01/05 04:44:41;;;;;;;5.38;1.70;;;2.90;99.90;;;;;;2141875;66;20703;-77
2022/01/05 04:47:23;;;;;;;5.03;1.05;;;3.70;99.90;;;;;;2135350;67;20305;-75
2022/01/05 04:50:08;;;;;;;4.95;1.38;;;2.90;99.90;;;;;;2119669;67;20349;-76
2022/01/05 04:52:53;;;;;;;3.85;1.77;;;2.90;99.90;;;;;;2114711;67;20180;-75
2022/01/05 04:55:43;;;;;;;;;;;2.90;99.90;;;;;;2114469;67;20280;-75
2022/01/05 04:58:26;;;;;;;6.32;1.48;;;2.90;99.90;;;;;;2129918;67;20055;-75
2022/01/05 05:01:12;;;;;;;10.07;2.13;;;3.60;99.90;;;;;;2141586;66;20826;-75
2022/01/05 05:03:54;;;;;;;4.80;2.05;;;3.10;99.90;;;;;;2155278;66;20208;-77
2022/01/05 05:06:36;;;;;;;6.40;1.98;;;3.10;99.90;;;;;;2132951;67;20230;-74
2022/01/05 05:09:19;;;;;;;9.63;2.42;;;3.10;99.90;;;;;;2133934;67;20284;-75
2022/01/05 05:12:01;;;;;;;10.13;3.20;;;3.10;99.90;;;;;;2132086;67;20221;-76
2022/01/05 05:14:44;;;;;;;11.85;2.20;;;3.20;99.90;;;;;;2126434;67;20205;-74
2022/01/05 05:17:29;;;;;;;7.63;2.70;;;3.30;99.90;;;;;;2119746;67;20336;-74
2022/01/05 05:20:16;;;;;;;10.60;2.90;;;3.30;99.90;;;;;;2118029;67;20212;-75
2022/01/05 05:22:59;;;;;;;10.00;2.40;;;3.50;99.90;;;;;;2120794;67;20396;-74
2022/01/05 05:25:41;;;;;;;14.25;3.00;;;3.60;99.90;;;;;;2126826;67;20345;-75
2022/01/05 05:28:23;;;;;;;14.57;3.15;;;3.60;99.90;;;;;;2141136;66;20214;-75
2022/01/05 05:31:05;;;;;;;7.75;2.20;;;3.70;99.90;;;;;;2158125;66;20181;-74
2022/01/05 05:33:46;;;;;;;10.82;2.28;;;3.80;99.90;;;;;;2155785;66;20676;-72
2022/01/05 05:36:28;;;;;;;8.10;1.92;;;3.90;99.90;;;;;;2148941;66;20309;-72
2022/01/05 05:39:10;;;;;;;6.82;2.58;;;3.90;99.90;;;;;;2142655;66;20233;-74
2022/01/05 05:41:52;;;;;;;10.25;2.83;;;3.90;99.90;;;;;;2134894;67;20219;-73
2022/01/05 05:44:33;;;;;;;8.43;1.63;;;3.90;99.90;;;;;;2145180;66;20199;-71
2022/01/05 05:47:16;;;;;;;13.63;2.70;;;3.80;99.90;;;;;;2131030;67;20387;-70
2022/01/05 05:50:00;;;;;;;6.22;2.05;;;3.60;99.90;;;;;;2142071;66;20200;-72
2022/01/05 05:52:42;;;;;;;17.15;3.60;;;3.40;99.90;;;;;;2143402;66;20186;-72
2022/01/05 05:55:25;;;;;;;8.85;2.15;;;3.40;99.90;;;;;;2161097;66;20286;-73
2022/01/05 05:58:09;;;;;;;;;;;3.10;99.90;;;;;;2155678;66;20405;-73
2022/01/05 06:00:52;;;;;;;10.00;2.17;;;3.20;99.90;;;;;;2148637;66;20241;-72
2022/01/05 06:03:43;;;;;;;12.75;2.72;;;3.20;99.90;;;;;;2134604;67;20329;-72
2022/01/05 06:06:25;;;;;;;13.40;2.60;;;3.20;99.90;;;;;;2145510;66;20266;-73
2022/01/05 06:09:07;;;;;;;6.05;2.78;;;3.30;99.90;;;;;;2126509;67;20647;-71
2022/01/05 06:11:49;;;;;;;8.18;2.45;;;3.30;99.90;;;;;;2132257;67;20255;-73
2022/01/05 06:14:32;;;;;;;9.95;2.72;;;3.30;99.90;;;;;;2132193;67;20379;-73
2022/01/05 06:17:17;;;;;;;7.75;1.88;;;3.30;99.90;;;;;;2126108;67;20208;-72
2022/01/05 06:19:59;;;;;;;9.00;2.70;;;3.50;99.90;;;;;;2132061;67;20191;-73
2022/01/05 06:22:44;;;;;;;10.93;2.40;;;3.30;99.90;;;;;;2124681;67;20337;-71
2022/01/05 06:25:26;;;;;;;12.10;2.53;;;3.40;99.90;;;;;;2110272;67;20403;-73
2022/01/05 06:28:12;;;;;;;18.02;3.67;;;3.30;99.90;;;;;;2102346;67;20200;-73
2022/01/05 06:30:54;;;;;;;15.10;2.75;;;3.50;99.90;;;;;;2125028;67;21130;-73
2022/01/05 06:33:37;;;;;;;17.92;3.30;;;3.50;99.90;;;;;;2108947;67;20193;-72
2022/01/05 06:36:22;;;;;;;13.95;2.92;;;3.50;99.90;;;;;;2125054;67;20258;-73
2022/01/05 06:39:11;;;;;;;7.25;2.50;;;3.60;99.90;;;;;;2119373;67;20244;-73
2022/01/05 06:41:53;;;;;;;14.05;3.08;;;3.60;99.90;;;;;;2102908;67;20368;-73
2022/01/05 06:44:35;;;;;;;8.40;3.10;;;3.70;99.90;;;;;;2106917;67;20211;-73
2022/01/05 06:47:17;;;;;;;9.07;2.63;;;3.70;99.90;;;;;;2102706;67;20264;-72
2022/01/05 06:49:59;;;;;;;16.33;3.25;;;3.80;99.90;;;;;;2092964;68;20206;-73
2022/01/05 06:52:41;;;;;;;17.95;3.10;;;3.80;99.90;;;;;;2104874;67;20839;-74
2022/01/05 06:55:27;;;;;;;13.23;3.53;;;3.80;99.90;;;;;;2109362;67;20741;-73
2022/01/05 06:58:09;;;;;;;14.98;2.25;;;3.80;99.90;;;;;;2119321;67;20453;-72
2022/01/05 07:00:55;;;;;;;11.87;2.53;;;3.80;99.90;;;;;;2117051;67;20365;-74
2022/01/05 07:03:37;;;;;;;8.07;2.13;;;3.90;99.90;;;;;;2129751;67;20253;-72
2022/01/05 07:06:20;;;;;;;12.98;2.13;;;3.90;99.90;;;;;;2122319;67;20243;-74
2022/01/05 07:09:03;;;;;;;8.63;2.63;;;3.90;99.90;;;;;;2123930;67;20329;-73
2022/01/05 07:11:45;;;;;;;9.80;2.05;;;3.90;99.90;;;;;;2130255;67;20198;-73
2022/01/05 07:14:27;;;;;;;16.58;2.47;;;3.90;99.90;;;;;;2127652;67;20716;-74
2022/01/05 07:17:14;;;;;;;15.82;2.30;;;3.80;99.90;;;;;;2124849;67;20205;-73
2022/01/05 07:19:59;;;;;;;13.18;2.22;;;3.70;99.90;;;;;;2123692;66;20183;-73
2022/01/05 07:22:44;;;;;;;10.15;2.33;;;3.60;99.90;;;;;;2124249;67;20729;-72
2022/01/05 07:25:27;;;;;;;9.23;2.20;;;3.70;99.90;;;;;;2118284;67;20176;-73
2022/01/05 07:28:10;;;;;;;10.43;2.60;;;3.70;99.90;;;;;;2121350;67;20393;-74
2022/01/05 07:30:51;;;;;;;7.20;2.63;;;3.70;99.90;;;;;;2114177;67;20754;-73
2022/01/05 07:33:36;;;;;;;8.95;2.22;;;3.70;99.90;;;;;;2110276;67;20960;-74
2022/01/05 07:36:19;;;;;;;16.17;3.08;;;3.70;99.90;;;;;;2103109;67;20836;-73
2022/01/05 07:39:05;;;;;;;7.22;2.33;;;3.70;99.90;;;;;;2111150;67;20454;-75
2022/01/05 07:41:47;;;;;;;11.23;2.85;;;3.80;99.90;;;;;;2109500;67;20393;-74
2022/01/05 07:44:31;;;;;;;9.73;2.08;;;4.60;99.90;;;;;;2093659;67;20813;-72
2022/01/05 07:47:15;;;;;;;14.23;2.25;;;3.80;99.90;;;;;;2112851;67;20347;-76
2022/01/05 07:50:03;;;;;;;10.27;2.30;;;3.80;99.90;;;;;;2110240;67;20325;-74
2022/01/05 07:52:47;;;;;;;13.80;2.17;;;3.90;99.90;;;;;;2112633;67;20193;-74
2022/01/05 07:55:36;;;;;;;13.20;2.30;;;3.90;99.90;;;;;;2111321;67;20719;-75
2022/01/05 07:58:23;;;;;;;11.90;2.47;;;3.90;99.90;;;;;;2115260;67;20332;-76
2022/01/05 08:01:10;;;;;;;9.32;2.88;;;4.00;99.90;;;;;;2107342;67;20243;-75
2022/01/05 08:04:19;;;;;;;13.88;2.22;;;4.10;99.90;;;;;;2115218;67;20330;-75
2022/01/05 08:07:05;;;;;;;8.15;2.30;;;4.10;99.90;;;;;;2115855;67;20228;-75
2022/01/05 08:09:50;;;;;;;6.53;1.73;;;4.20;99.90;;;;;;2133264;67;20395;-74
2022/01/05 08:12:33;;;;;;;5.30;1.85;;;4.20;99.90;;;;;;2125416;67;20239;-74
2022/01/05 08:15:19;;;;;;;10.70;2.45;;;4.10;99.90;;;;;;2126257;67;20434;-75
2022/01/05 08:18:03;;;;;;;16.38;2.80;;;4.10;99.90;;;;;;2122440;67;20260;-75
2022/01/05 08:20:48;;;;;;;14.82;2.67;;;4.10;99.90;;;;;;2136613;66;20289;-73
2022/01/05 08:23:30;;;;;;;12.32;2.33;;;4.90;99.90;;;;;;2127466;67;20172;-74
2022/01/05 08:26:14;;;;;;;9.25;2.75;;;4.20;99.90;;;;;;2138283;66;20727;-74
2022/01/05 08:28:56;;;;;;;9.55;1.88;;;4.20;99.90;;;;;;2149879;66;20338;-74
2022/01/05 08:31:40;;;;;;;11.40;3.25;;;4.30;99.90;;;;;;2160044;66;20197;-73
2022/01/05 08:34:25;;;;;;;12.38;2.50;;;4.30;99.90;;;;;;2150023;66;20270;-75
2022/01/05 08:37:07;;;;;;;14.57;3.42;;;4.30;99.90;;;;;;2137735;66;20211;-75
2022/01/05 08:39:53;;;;;;;10.27;3.28;;;4.40;99.90;;;;;;2137754;66;20195;-75
2022/01/05 08:42:34;;;;;;;8.15;2.47;;;4.50;99.90;;;;;;2146916;66;20347;-76
2022/01/05 08:45:17;;;;;;;16.92;3.20;;;5.40;99.90;;;;;;2148801;66;20400;-74
2022/01/05 08:48:00;;;;;;;17.70;3.08;;;4.60;99.90;;;;;;2149546;66;20256;-75
2022/01/05 08:50:45;;;;;;;17.20;3.45;;;4.70;99.90;;;;;;2167072;65;20331;-75
2022/01/05 08:53:25;;;;;;;18.63;3.85;;;4.70;99.90;;;;;;2164451;66;20202;-72
2022/01/05 08:56:02;;;;;;;20.52;3.15;;;4.80;99.90;;;;;;2162793;66;20172;-74
2022/01/05 08:58:30;;;;;;;12.80;3.85;;;4.80;99.90;;;;;;2161268;66;20196;-75
2022/01/05 09:01:12;;;;;;;27.23;4.15;;;4.80;99.90;;;;;;2162267;66;21990;-75
2022/01/05 09:03:56;;;;;;;14.38;3.33;;;5.00;99.90;;;;;;2176411;65;20250;-74
2022/01/05 09:06:35;;;;;;;17.85;4.03;;;4.70;99.90;;;;;;2182905;65;20265;-75
2022/01/05 09:09:21;;;;;;;19.50;3.03;;;5.10;99.90;;;;;;2185516;65;20171;-76
2022/01/05 09:12:00;;;;;;;14.73;2.70;;;4.70;99.90;;;;;;2188786;65;20199;-75
2022/01/05 09:14:37;;;;;;;12.10;3.08;;;4.80;99.90;;;;;;2200561;65;20252;-75
2022/01/05 09:17:16;;;;;;;13.57;2.92;;;4.60;99.90;;;;;;2205025;64;20259;-76
2022/01/05 09:19:53;;;;;;;13.48;2.83;;;4.50;99.90;;;;;;2219440;64;20281;-74
2022/01/05 09:22:30;;;;;;;12.50;2.08;;;4.50;99.90;;;;;;2234823;63;20226;-75
2022/01/05 09:25:12;;;;;;;15.68;2.90;;;4.50;99.90;;;;;;2235799;63;20171;-75
2022/01/05 09:27:50;;;;;;;10.15;2.47;;;5.50;99.90;;;;;;2237653;63;20727;-76
2022/01/05 09:30:27;;;;;;;9.57;2.85;;;4.40;99.90;;;;;;2237189;63;20169;-76
2022/01/05 09:33:10;;;;;;;8.30;2.30;;;4.70;99.90;;;;;;2234378;63;20643;-75
2022/01/05 09:36:09;;;;;;;12.27;2.30;;;5.30;99.90;;;;;;2227076;64;20245;-77
2022/01/05 09:42:10;;;;;;;12.20;2.90;;;4.60;99.90;;;;;;2228903;64;20643;-77
2022/01/05 09:44:41;;;;;;;10.68;3.08;;;4.70;99.90;;;;;;2211293;64;20257;-76
2022/01/05 09:48:08;;;;;;;10.32;3.15;;;4.80;99.90;;;;;;2191349;65;20186;-76
2022/01/05 09:51:03;;;;;;;5.70;1.88;;;4.90;99.90;;;;;;2191128;65;20813;-76
2022/01/05 09:53:45;;;;;;;10.15;2.75;;;4.90;99.90;;;;;;2187564;65;20189;-76
2022/01/05 09:56:35;;;;;;;13.00;3.00;;;4.90;99.90;;;;;;2189581;65;20913;-77
2022/01/05 09:59:21;;;;;;;12.10;2.65;;;5.00;99.90;;;;;;2187572;65;20375;-77
2022/01/05 10:02:06;;;;;;;8.02;2.53;;;5.60;99.90;;;;;;2180517;65;20285;-76
2022/01/05 10:04:47;;;;;;;11.25;2.60;;;5.10;99.90;;;;;;2169732;65;20163;-77
2022/01/05 10:07:29;;;;;;;11.50;2.63;;;5.10;99.90;;;;;;2176352;65;20324;-77
2022/01/05 10:10:11;;;;;;;12.05;3.20;;;5.10;99.90;;;;;;2160532;66;20197;-76
2022/01/05 10:12:53;;;;;;;11.23;2.60;;;5.50;99.90;;;;;;2153570;66;20224;-75
2022/01/05 10:15:34;;;;;;;10.38;2.28;;;5.30;99.90;;;;;;2146616;66;20264;-76
2022/01/05 10:18:19;;;;;;;9.07;2.80;;;5.40;99.90;;;;;;2137851;66;20372;-76
2022/01/05 10:21:03;;;;;;;20.10;3.45;;;5.40;99.90;;;;;;2133751;67;20341;-76
2022/01/05 10:23:50;;;;;;;15.00;2.45;;;5.40;99.90;;;;;;2126312;67;20196;-76
2022/01/05 10:26:39;;;;;;;8.88;2.53;;;5.40;99.90;;;;;;2121846;67;20292;-79
2022/01/05 10:29:21;;;;;;;14.00;2.95;;;5.60;99.90;;;;;;2127422;67;20581;-74
2022/01/05 10:32:08;;;;;;;14.15;3.13;;;5.60;99.90;;;;;;2118067;67;20338;-76
2022/01/05 10:35:26;;;;;;;12.38;2.65;;;5.60;99.90;;;;;;2126221;67;20239;-78
2022/01/05 10:38:12;;;;;;;15.88;2.83;;;5.40;99.90;;;;;;2094719;68;20325;-76
2022/01/05 10:40:58;;;;;;;14.25;3.63;;;5.70;99.90;;;;;;2106950;67;20368;-84
2022/01/05 10:44:15;;;;;;;8.93;3.67;;;5.90;99.90;;;;;;2102985;67;20170;-81
2022/01/05 10:46:59;;;;;;;12.23;3.55;;;6.00;99.90;;;;;;2104910;67;20722;-78
2022/01/05 10:49:46;;;;;;;11.75;3.40;;;6.20;99.90;;;;;;2105318;67;20719;-76
2022/01/05 10:52:51;;;;;;;14.30;3.90;;;6.80;99.90;;;;;;2094086;68;20194;-75
2022/01/05 10:55:40;;;;;;;14.85;3.60;;;6.20;99.90;;;;;;2104971;67;20442;-74
2022/01/05 10:58:26;;;;;;;17.30;4.20;;;6.40;99.90;;;;;;2120068;67;20287;-75
2022/01/05 11:01:26;;;;;;;13.63;3.47;;;6.40;99.90;;;;;;2111811;67;20260;-75
2022/01/05 11:04:22;;;;;;;15.68;4.28;;;6.40;99.90;;;;;;2121980;67;20335;-74
2022/01/05 11:07:05;;;;;;;12.95;3.88;;;6.40;99.90;;;;;;2115251;67;20220;-76
2022/01/05 11:10:09;;;;;;;21.58;4.13;;;6.30;99.90;;;;;;2106494;68;20280;-75
2022/01/05 11:13:06;;;;;;;17.15;3.45;;;6.30;99.90;;;;;;2119622;67;20323;-76
2022/01/05 11:15:57;;;;;;;14.40;3.88;;;6.40;99.90;;;;;;2136795;66;20186;-76
2022/01/05 11:18:38;;;;;;;18.17;4.60;;;6.60;99.90;;;;;;2140786;66;20254;-78
2022/01/05 11:21:22;;;;;;;16.10;3.92;;;6.80;99.90;;;;;;2122094;67;20200;-75
2022/01/05 11:24:07;;;;;;;18.85;3.67;;;7.10;99.90;;;;;;2109203;67;20335;-74
2022/01/05 11:26:50;;;;;;;20.42;4.97;;;8.00;99.90;;;;;;2115384;67;20277;-78
2022/01/05 11:29:33;;;;;;;15.68;3.92;;;7.50;99.90;;;;;;2118744;67;20262;-77
2022/01/05 11:32:24;;;;;;;17.30;3.95;;;7.60;99.90;;;;;;2126351;67;20199;-74
2022/01/05 11:35:08;;;;;;;20.17;4.72;;;7.80;99.90;;;;;;2126780;67;20227;-75
2022/01/05 11:37:49;;;;;;;18.60;4.45;;;8.10;99.90;;;;;;2126250;67;20197;-77
2022/01/05 11:40:33;;;;;;;12.15;3.40;;;8.50;99.90;;;;;;2144352;66;20171;-76
2022/01/05 11:43:12;;;;;;;8.88;2.83;;;8.50;99.90;;;;;;2139732;66;20911;-77
2022/01/05 11:45:46;;;;;;;14.10;3.42;;;8.60;99.90;;;;;;2146640;66;20321;-75
2022/01/05 11:48:29;;;;;;;17.08;3.80;;;8.50;99.90;;;;;;2144732;66;20186;-74
2022/01/05 11:51:03;;;;;;;13.77;3.60;;;8.70;99.90;;;;;;2139269;66;20709;-76
2022/01/05 11:53:45;;;;;;;13.38;3.83;;;8.50;99.90;;;;;;2138956;66;20212;-77
2022/01/05 11:56:23;;;;;;;10.85;3.63;;;8.50;99.90;;;;;;2156837;66;20726;-76
2022/01/05 11:59:07;;;;;;;13.85;3.45;;;8.20;99.90;;;;;;2161741;65;20213;-77
2022/01/05 12:01:59;;;;;;;11.27;3.22;;;8.20;99.90;;;;;;2168558;65;20222;-75
2022/01/05 12:04:56;;;;;;;12.65;2.80;;;8.10;99.90;;;;;;2177830;65;20466;-76
2022/01/05 12:07:37;;;;;;;18.55;3.15;;;8.10;99.90;;;;;;2183128;65;20210;-75
2022/01/05 12:10:52;;;;;;;14.07;3.47;;;8.10;99.90;;;;;;2182938;64;20174;-76
2022/01/05 12:13:40;;;;;;;17.88;2.85;;;8.10;99.90;;;;;;2226804;64;20314;-76
2022/01/05 12:16:19;;;;;;;9.02;2.13;;;8.20;99.90;;;;;;2230473;64;20167;-74
2022/01/05 12:19:12;;;;;;;7.78;2.00;;;8.00;99.90;;;;;;2228462;64;20180;-76
2022/01/05 12:21:51;;;;;;;5.60;1.98;;;7.80;99.90;;;;;;2225245;64;20695;-74
2022/01/05 12:24:52;;;;;;;8.70;1.73;;;7.70;99.90;;;;;;2220444;64;20572;-77
2022/01/05 12:27:34;;;;;;;11.45;2.65;;;7.70;99.90;;;;;;2219783;64;20168;-77
2022/01/05 12:30:09;;;;;;;11.18;2.53;;;7.70;99.90;;;;;;2222666;64;20409;-77
2022/01/05 12:33:01;;;;;;;12.93;2.60;;;7.60;99.90;;;;;;2222113;64;20198;-77
2022/01/05 12:35:46;;;;;;;14.40;3.30;;;8.10;99.90;;;;;;2221683;64;20599;-77
2022/01/05 12:38:38;;;;;;;11.77;2.58;;;7.90;99.90;;;;;;2221645;64;20187;-77
2022/01/05 12:41:43;;;;;;;13.90;3.25;;;8.20;99.90;;;;;;2221458;64;20183;-76
2022/01/05 12:44:28;;;;;;;12.88;3.30;;;8.50;99.90;;;;;;2230928;64;20196;-76
2022/01/05 12:47:37;;;;;;;11.52;2.63;;;8.60;99.90;;;;;;2229199;64;20320;-74
2022/01/05 12:50:20;;;;;;;10.15;2.83;;;8.80;99.90;;;;;;2220255;64;20195;-75
2022/01/05 12:53:02;;;;;;;7.32;2.47;;;8.10;99.90;;;;;;2202285;65;20265;-74
2022/01/05 12:55:47;;;;;;;11.57;3.15;;;8.00;99.90;;;;;;2190729;65;20256;-73
2022/01/05 12:58:36;;;;;;;10.38;3.03;;;7.80;99.90;;;;;;2182548;65;20182;-75
2022/01/05 13:01:18;;;;;;;13.18;2.85;;;7.70;99.90;;;;;;2174956;65;20323;-74
2022/01/05 13:04:00;;;;;;;9.05;2.80;;;7.90;99.90;;;;;;2163281;66;20172;-77
2022/01/05 13:06:44;;;;;;;13.77;2.88;;;8.30;99.90;;;;;;2168229;66;20340;-77
2022/01/05 13:09:38;;;;;;;9.57;2.50;;;8.90;99.90;;;;;;2168510;66;20176;-77
2022/01/05 13:12:22;;;;;;;14.75;3.47;;;9.30;99.90;;;;;;2170676;65;20811;-76
2022/01/05 13:15:10;;;;;;;11.77;3.40;;;9.10;99.90;;;;;;2151972;66;20243;-79
2022/01/05 13:17:55;;;;;;;14.70;3.20;;;8.80;99.90;;;;;;2152382;66;20269;-75
2022/01/05 13:20:37;;;;;;;13.53;3.40;;;8.80;99.90;;;;;;2148000;66;20318;-78
2022/01/05 13:23:19;;;;;;;7.75;2.50;;;9.20;99.90;;;;;;2145451;66;20212;-76
2022/01/05 13:26:11;;;;;;;11.65;3.40;;;9.60;99.90;;;;;;2147651;66;20583;-77
2022/01/05 13:28:52;;;;;;;16.52;3.45;;;9.90;99.90;;;;;;2150973;66;20169;-76
2022/01/05 13:31:22;;;;;;;14.00;4.15;;;10.10;99.90;;;;;;2152868;66;20412;-75
2022/01/05 13:33:53;;;;;;;16.10;3.28;;;9.90;99.90;;;;;;2152736;66;22564;-77
2022/01/05 13:36:23;;;;;;;10.82;3.10;;;9.50;99.90;;;;;;2154375;66;20247;-78
2022/01/05 13:38:57;;;;;;;7.05;2.50;;;9.00;99.90;;;;;;2156971;66;20338;-77
2022/01/05 13:41:55;;;;;;;6.88;2.00;;;8.60;99.90;;;;;;2151958;66;20732;-77
2022/01/05 13:44:48;;;;;;;7.55;2.30;;;8.10;99.90;;;;;;2155082;66;20193;-76
2022/01/05 13:47:41;;;;;;;10.02;2.42;;;7.90;99.90;;;;;;2138408;66;21132;-75
2022/01/05 13:50:24;;;;;;;9.63;2.92;;;7.50;99.90;;;;;;2137855;67;20348;-79
2022/01/05 13:53:27;;;;;;;11.02;3.50;;;7.70;99.90;;;;;;2135425;66;20206;-75
2022/01/05 13:56:14;;;;;;;15.10;3.33;;;7.20;99.90;;;;;;2141037;66;20682;-78
2022/01/05 13:58:54;;;;;;;13.65;2.47;;;7.20;99.90;;;;;;2168481;65;20718;-75
2022/01/05 14:01:33;;;;;;;10.02;2.33;;;7.20;99.90;;;;;;2185850;65;20693;-74
2022/01/05 14:04:12;;;;;;;13.55;2.95;;;7.10;99.90;;;;;;2186732;65;20278;-76
2022/01/05 14:06:42;;;;;;;10.30;2.53;;;7.40;99.90;;;;;;2183271;65;20260;-74
2022/01/05 14:09:29;;;;;;;10.82;3.65;;;7.10;99.90;;;;;;2191096;65;20194;-76
2022/01/05 14:12:50;;;;;;;9.93;2.25;;;7.20;99.90;;;;;;2193856;64;20210;-76
2022/01/05 14:15:27;;;;;;;7.18;1.98;;;7.20;99.90;;;;;;2207828;64;20610;-76
2022/01/05 14:18:15;;;;;;;9.73;2.67;;;7.40;99.90;;;;;;2206019;64;20241;-75
2022/01/05 14:21:08;;;;;;;12.60;3.00;;;7.60;99.90;;;;;;2192456;65;20256;-77
2022/01/05 14:23:46;;;;;;;13.27;2.95;;;7.60;99.90;;;;;;2192680;65;20266;-78
2022/01/05 14:26:28;;;;;;;16.60;3.10;;;7.60;99.90;;;;;;2189990;65;20197;-78